Time;durP1;ratioP1;P1;durP2;ratioP2;P2;SDS_P1;SDS_P2;PMS_P1;PMS_P2;Temp;Humidity;BMP_temperature;BMP_pressure;BME280_temperature;BME280_humidity;BME280_pressure;Samples;Min_cycle;Max_cycle;Signal;HPM_P1;HPM_P2
2023/05/30 00:01:48;;;;;;;16.02;2.10;;;9.20;99.90;;;;;;5033378;28;20025;-80
2023/05/30 00:04:14;;;;;;;16.42;2.50;;;9.20;99.90;;;;;;5039606;28;20396;-80
2023/05/30 00:06:39;;;;;;;11.50;2.20;;;9.10;99.90;;;;;;5045776;28;20044;-79
2023/05/30 00:09:05;;;;;;;18.73;3.47;;;9.10;99.90;;;;;;5053033;28;20029;-80
2023/05/30 00:11:31;;;;;;;18.67;2.67;;;9.00;99.90;;;;;;5061847;28;20039;-80
2023/05/30 00:13:56;;;;;;;15.48;2.75;;;9.00;99.90;;;;;;5041981;28;20119;-80
2023/05/30 00:16:23;;;;;;;13.80;2.20;;;9.10;99.90;;;;;;5050080;28;20040;-80
2023/05/30 00:18:52;;;;;;;12.43;2.60;;;9.00;99.90;;;;;;5046168;28;20059;-80
2023/05/30 00:21:18;;;;;;;15.02;2.60;;;9.00;99.90;;;;;;5027341;28;20047;-78
2023/05/30 00:23:45;;;;;;;9.48;2.55;;;9.00;99.90;;;;;;5033938;28;20024;-80
2023/05/30 00:26:11;;;;;;;11.98;2.45;;;8.90;99.90;;;;;;5052428;28;20036;-80
2023/05/30 00:28:38;;;;;;;14.93;2.55;;;8.90;99.90;;;;;;5032332;28;20032;-80
2023/05/30 00:31:05;;;;;;;15.50;2.60;;;8.90;99.90;;;;;;5059558;28;20039;-80
2023/05/30 00:33:31;;;;;;;13.32;2.65;;;8.90;99.90;;;;;;5051368;28;20140;-81
2023/05/30 00:35:56;;;;;;;11.73;2.53;;;8.90;99.90;;;;;;5057593;28;20041;-80
2023/05/30 00:38:22;;;;;;;20.02;2.78;;;8.90;99.90;;;;;;5048046;28;20124;-81
2023/05/30 00:40:47;;;;;;;17.30;2.60;;;8.90;99.90;;;;;;5047851;28;20044;-80
2023/05/30 00:43:15;;;;;;;13.65;2.38;;;8.80;99.90;;;;;;5035105;28;20139;-80
2023/05/30 00:45:41;;;;;;;9.52;2.60;;;8.80;99.90;;;;;;5035428;28;20037;-80
2023/05/30 00:48:06;;;;;;;13.73;2.08;;;8.80;99.90;;;;;;5034462;28;20116;-80
2023/05/30 00:50:33;;;;;;;13.00;2.47;;;8.80;99.90;;;;;;5035814;28;20104;-80
2023/05/30 00:52:59;;;;;;;14.60;2.65;;;8.80;99.90;;;;;;5036255;28;20509;-80
2023/05/30 00:55:27;;;;;;;18.30;2.63;;;8.70;99.90;;;;;;5037672;28;20051;-79
2023/05/30 00:57:53;;;;;;;14.77;2.63;;;8.70;99.90;;;;;;5031341;28;20125;-81
2023/05/30 01:00:19;;;;;;;15.63;3.25;;;8.60;99.90;;;;;;5028801;28;20556;-80
2023/05/30 01:02:47;;;;;;;13.95;2.65;;;8.60;99.90;;;;;;5035708;28;20368;-80
2023/05/30 01:05:14;;;;;;;18.48;3.20;;;8.60;99.90;;;;;;5033870;28;20026;-81
2023/05/30 01:07:43;;;;;;;11.05;2.85;;;8.60;99.90;;;;;;5028702;28;20033;-81
2023/05/30 01:10:13;;;;;;;11.68;2.13;;;8.60;99.90;;;;;;5042365;28;20052;-79
2023/05/30 01:13:11;;;;;;;13.93;2.47;;;8.60;99.90;;;;;;5032091;28;20033;-80
2023/05/30 01:15:54;;;;;;;14.75;2.65;;;8.60;99.90;;;;;;5040660;28;20029;-80
2023/05/30 01:18:31;;;;;;;12.80;2.10;;;8.60;99.90;;;;;;5035884;28;20096;-81
2023/05/30 01:21:00;;;;;;;20.15;4.07;;;8.60;99.90;;;;;;5023911;28;20044;-81
2023/05/30 01:23:36;;;;;;;18.67;2.97;;;8.60;99.90;;;;;;5033569;28;20045;-80
2023/05/30 01:26:19;;;;;;;11.73;2.50;;;8.60;99.90;;;;;;5038775;28;20112;-81
2023/05/30 01:28:48;;;;;;;14.65;2.65;;;8.60;99.90;;;;;;5036579;28;20466;-80
2023/05/30 01:31:14;;;;;;;9.07;2.08;;;8.60;99.90;;;;;;5029796;28;20124;-80
2023/05/30 01:33:43;;;;;;;18.65;2.55;;;8.60;99.90;;;;;;5033275;28;20091;-80
2023/05/30 01:36:10;;;;;;;21.77;3.65;;;8.60;99.90;;;;;;5030903;28;20025;-82
2023/05/30 01:38:37;;;;;;;19.55;2.40;;;8.60;99.90;;;;;;5027728;28;20044;-83
2023/05/30 01:41:07;;;;;;;11.02;3.05;;;8.60;99.90;;;;;;5028481;28;20044;-82
2023/05/30 01:43:35;;;;;;;19.23;3.25;;;8.60;99.90;;;;;;5033733;28;20083;-82
2023/05/30 01:46:15;;;;;;;12.18;3.13;;;8.50;99.90;;;;;;5042365;28;20037;-82
2023/05/30 01:49:00;;;;;;;12.95;2.45;;;8.50;99.90;;;;;;5031863;28;20508;-81
2023/05/30 01:51:38;;;;;;;15.68;2.70;;;8.50;99.90;;;;;;5037656;28;20112;-80
2023/05/30 01:54:06;;;;;;;13.82;3.08;;;8.60;99.90;;;;;;5028046;28;20052;-82
2023/05/30 01:56:34;;;;;;;19.70;3.00;;;8.50;99.90;;;;;;5023604;28;20131;-82
2023/05/30 01:59:02;;;;;;;15.50;2.97;;;8.50;99.90;;;;;;5025212;28;20021;-82
2023/05/30 02:01:29;;;;;;;18.67;2.70;;;8.50;99.90;;;;;;5024087;28;20609;-82
2023/05/30 02:03:55;;;;;;;11.43;2.55;;;8.50;99.90;;;;;;5033250;28;20029;-82
2023/05/30 02:06:23;;;;;;;10.98;2.50;;;8.50;99.90;;;;;;5044562;28;20055;-82
2023/05/30 02:08:48;;;;;;;15.10;2.17;;;8.50;99.90;;;;;;5030732;28;20775;-81
2023/05/30 02:11:14;;;;;;;9.70;2.72;;;8.40;99.90;;;;;;5031992;28;20318;-82
2023/05/30 02:13:40;;;;;;;13.50;2.97;;;8.50;99.90;;;;;;5041262;28;20091;-82
2023/05/30 02:16:06;;;;;;;11.43;2.60;;;8.50;99.90;;;;;;5034424;28;20044;-81
2023/05/30 02:18:34;;;;;;;11.10;2.35;;;8.40;99.90;;;;;;5031495;28;20064;-81
2023/05/30 02:20:59;;;;;;;13.93;2.45;;;8.40;99.90;;;;;;5024591;28;20061;-82
2023/05/30 02:23:25;;;;;;;11.30;2.53;;;8.40;99.90;;;;;;5022910;28;20965;-82
2023/05/30 02:25:51;;;;;;;12.43;3.05;;;8.30;99.90;;;;;;5030226;28;20052;-82
2023/05/30 02:28:17;;;;;;;12.35;2.45;;;8.30;99.90;;;;;;5029579;28;20025;-82
2023/05/30 02:30:42;;;;;;;14.52;2.50;;;8.20;99.90;;;;;;5034631;28;20036;-79
2023/05/30 02:33:08;;;;;;;13.60;2.88;;;8.20;99.90;;;;;;5028655;28;20025;-79
2023/05/30 02:35:33;;;;;;;16.05;2.80;;;8.20;99.90;;;;;;5028625;28;20099;-82
2023/05/30 02:37:59;;;;;;;13.00;2.75;;;8.20;99.90;;;;;;5026463;28;20030;-82
2023/05/30 02:40:25;;;;;;;11.57;2.80;;;8.20;99.90;;;;;;5045094;28;20033;-82
2023/05/30 02:42:50;;;;;;;14.90;2.65;;;8.20;99.90;;;;;;5048269;28;20037;-82
2023/05/30 02:45:16;;;;;;;13.93;2.83;;;8.20;99.90;;;;;;5061091;28;20037;-82
2023/05/30 02:47:42;;;;;;;15.07;3.17;;;8.20;99.90;;;;;;5037675;28;20611;-82
2023/05/30 02:50:08;;;;;;;12.38;2.42;;;8.20;99.90;;;;;;5053477;28;20028;-82
2023/05/30 02:52:33;;;;;;;14.82;2.90;;;8.10;99.90;;;;;;5045566;28;20029;-82
2023/05/30 02:54:59;;;;;;;20.88;3.40;;;8.10;99.90;;;;;;5026232;28;20040;-81
2023/05/30 02:57:25;;;;;;;11.95;2.85;;;8.20;99.90;;;;;;5029695;28;20041;-82
2023/05/30 02:59:51;;;;;;;15.80;2.80;;;8.10;99.90;;;;;;5068694;28;20589;-82
2023/05/30 03:02:16;;;;;;;14.48;2.25;;;8.10;99.90;;;;;;5047486;28;20040;-80
2023/05/30 03:04:45;;;;;;;12.48;2.72;;;8.10;99.90;;;;;;5041862;28;20033;-82
2023/05/30 03:07:12;;;;;;;21.02;3.03;;;8.10;99.90;;;;;;5053392;28;20420;-81
2023/05/30 03:09:40;;;;;;;12.88;3.47;;;8.10;99.90;;;;;;5047271;28;20467;-81
2023/05/30 03:12:06;;;;;;;12.90;2.60;;;8.00;99.90;;;;;;5058927;28;20036;-81
2023/05/30 03:14:32;;;;;;;14.10;3.17;;;8.00;99.90;;;;;;5039194;28;20028;-82
2023/05/30 03:16:58;;;;;;;17.05;3.30;;;8.00;99.90;;;;;;5056334;28;20056;-82
2023/05/30 03:19:23;;;;;;;14.43;2.85;;;8.00;99.90;;;;;;5034621;28;20067;-82
2023/05/30 03:21:52;;;;;;;10.20;2.30;;;8.00;99.90;;;;;;5031462;28;20043;-82
2023/05/30 03:24:18;;;;;;;16.30;3.42;;;7.90;99.90;;;;;;5054735;28;20087;-82
2023/05/30 03:26:43;;;;;;;10.77;2.58;;;7.90;99.90;;;;;;5047375;28;20146;-81
2023/05/30 03:29:09;;;;;;;9.23;2.97;;;7.90;99.90;;;;;;5065594;28;20063;-82
2023/05/30 03:31:35;;;;;;;12.65;3.40;;;7.90;99.90;;;;;;5045804;28;20071;-81
2023/05/30 03:34:01;;;;;;;15.88;3.10;;;7.80;99.90;;;;;;5031008;28;20068;-82
2023/05/30 03:36:27;;;;;;;12.07;3.30;;;7.80;99.90;;;;;;5059188;28;20087;-81
2023/05/30 03:38:53;;;;;;;12.70;3.28;;;7.80;99.90;;;;;;5046236;28;20480;-82
2023/05/30 03:41:20;;;;;;;18.00;3.47;;;7.80;99.90;;;;;;5044588;28;20037;-82
2023/05/30 03:43:46;;;;;;;13.20;3.33;;;7.80;99.90;;;;;;5044233;28;20381;-82
2023/05/30 03:46:15;;;;;;;14.98;3.58;;;7.80;99.90;;;;;;5028475;28;20044;-80
2023/05/30 03:48:44;;;;;;;11.57;2.75;;;7.90;99.90;;;;;;5039906;28;20028;-81
2023/05/30 03:51:11;;;;;;;11.07;2.85;;;7.80;99.90;;;;;;5042675;28;20032;-82
2023/05/30 03:53:37;;;;;;;14.27;3.72;;;7.80;99.90;;;;;;5044348;28;20024;-82
2023/05/30 03:56:03;;;;;;;15.75;3.42;;;7.90;99.90;;;;;;5039083;28;20114;-81
2023/05/30 03:58:28;;;;;;;14.02;3.40;;;7.90;99.90;;;;;;5042297;28;20489;-82
2023/05/30 04:00:54;;;;;;;12.02;3.78;;;7.90;99.90;;;;;;5034973;28;20036;-82
2023/05/30 04:03:19;;;;;;;16.48;3.58;;;7.90;99.90;;;;;;5037848;28;20095;-81
2023/05/30 04:05:48;;;;;;;16.30;4.15;;;8.00;99.90;;;;;;5051829;28;20116;-82
2023/05/30 04:08:15;;;;;;;15.23;3.75;;;8.00;99.90;;;;;;5046806;28;20134;-81
2023/05/30 04:10:41;;;;;;;12.30;4.05;;;8.10;99.90;;;;;;5036859;28;20143;-81
2023/05/30 04:13:07;;;;;;;16.52;3.88;;;8.10;99.90;;;;;;5071841;28;20114;-81
2023/05/30 04:15:33;;;;;;;12.18;3.58;;;8.10;99.90;;;;;;5039822;28;20186;-81
2023/05/30 04:18:00;;;;;;;16.90;3.83;;;8.20;99.90;;;;;;5028565;28;20036;-82
2023/05/30 04:20:26;;;;;;;22.52;4.97;;;8.20;99.90;;;;;;5042995;28;20494;-81
2023/05/30 04:22:52;;;;;;;18.85;4.28;;;8.30;99.90;;;;;;5045506;28;20059;-82
2023/05/30 04:25:18;;;;;;;18.92;4.68;;;8.30;99.90;;;;;;5043103;28;20114;-82
2023/05/30 04:27:44;;;;;;;11.70;3.45;;;8.30;99.90;;;;;;5036384;28;20174;-81
2023/05/30 04:30:10;;;;;;;18.48;4.28;;;8.40;99.90;;;;;;5040093;28;20047;-81
2023/05/30 04:32:36;;;;;;;17.42;5.47;;;8.50;99.90;;;;;;5046902;28;20028;-81
2023/05/30 04:35:03;;;;;;;17.85;4.30;;;8.50;99.90;;;;;;5058763;28;20099;-82
2023/05/30 04:37:29;;;;;;;23.50;4.22;;;8.60;99.90;;;;;;5034548;28;20132;-81
2023/05/30 04:39:56;;;;;;;16.77;4.60;;;8.70;99.90;;;;;;5047757;28;20647;-81
2023/05/30 04:42:26;;;;;;;19.17;5.07;;;8.70;99.90;;;;;;5055027;28;20115;-80
2023/05/30 04:44:53;;;;;;;13.43;3.58;;;8.80;99.90;;;;;;5047060;28;20341;-81
2023/05/30 04:47:21;;;;;;;16.73;4.78;;;8.90;99.90;;;;;;5051941;28;20135;-82
2023/05/30 04:49:47;;;;;;;21.42;4.38;;;9.00;99.90;;;;;;5041605;28;20531;-81
2023/05/30 04:52:12;;;;;;;15.73;4.80;;;9.10;99.90;;;;;;5047591;28;20070;-82
2023/05/30 04:54:38;;;;;;;18.88;4.13;;;9.20;99.90;;;;;;5040262;28;20218;-81
2023/05/30 04:57:04;;;;;;;20.67;4.80;;;9.30;99.90;;;;;;5062912;28;20079;-80
2023/05/30 04:59:30;;;;;;;16.95;4.97;;;9.40;99.90;;;;;;5042598;28;20432;-81
2023/05/30 05:01:56;;;;;;;12.35;3.95;;;9.50;99.90;;;;;;5046199;28;20036;-81
2023/05/30 05:04:22;;;;;;;21.63;4.68;;;9.60;99.90;;;;;;5058931;28;20028;-80
2023/05/30 05:06:48;;;;;;;22.02;4.80;;;9.80;99.90;;;;;;5061220;28;20033;-80
2023/05/30 05:09:13;;;;;;;23.30;4.28;;;10.00;99.90;;;;;;5030065;28;20119;-80
2023/05/30 05:11:39;;;;;;;16.65;4.30;;;10.10;99.90;;;;;;5035300;28;20033;-80
2023/05/30 05:14:05;;;;;;;15.65;4.32;;;10.30;99.90;;;;;;5054216;28;20024;-80
2023/05/30 05:16:30;;;;;;;16.42;4.28;;;10.40;99.90;;;;;;5039337;28;20044;-80
2023/05/30 05:18:56;;;;;;;25.52;4.65;;;10.50;99.90;;;;;;5050189;28;20033;-81
2023/05/30 05:21:21;;;;;;;17.60;4.40;;;10.60;99.90;;;;;;5058507;28;20058;-80
2023/05/30 05:23:48;;;;;;;20.65;4.07;;;10.70;99.90;;;;;;5050920;28;20024;-80
2023/05/30 05:26:13;;;;;;;13.55;3.88;;;10.80;99.90;;;;;;5036922;28;20844;-79
2023/05/30 05:28:39;;;;;;;16.85;3.47;;;10.90;99.90;;;;;;5031819;28;20112;-80
2023/05/30 05:31:05;;;;;;;16.48;3.67;;;10.90;99.90;;;;;;5049019;28;20041;-79
2023/05/30 05:33:30;;;;;;;13.23;3.45;;;11.00;99.90;;;;;;5042194;28;20029;-80
2023/05/30 05:35:56;;;;;;;12.02;3.53;;;11.00;99.90;;;;;;5040702;28;20040;-80
2023/05/30 05:38:21;;;;;;;15.60;3.47;;;11.10;99.90;;;;;;5036542;28;20043;-79
2023/05/30 05:40:47;;;;;;;11.02;3.70;;;11.20;99.90;;;;;;5045183;28;20036;-80
2023/05/30 05:43:13;;;;;;;16.88;3.30;;;11.20;99.90;;;;;;5023811;28;20053;-80
2023/05/30 05:45:38;;;;;;;17.80;3.55;;;11.30;99.90;;;;;;5023454;28;20056;-81
2023/05/30 05:48:04;;;;;;;14.05;3.50;;;11.30;99.90;;;;;;5046616;28;20032;-79
2023/05/30 05:50:30;;;;;;;19.55;4.00;;;11.30;99.90;;;;;;5037746;28;20060;-80
2023/05/30 05:52:56;;;;;;;18.65;4.47;;;11.40;99.90;;;;;;5038104;28;20099;-80
2023/05/30 05:55:22;;;;;;;21.33;3.85;;;11.40;99.90;;;;;;5023408;28;20029;-80
2023/05/30 05:57:47;;;;;;;12.52;3.03;;;11.50;99.90;;;;;;5023472;28;20408;-81
2023/05/30 06:00:14;;;;;;;16.92;3.22;;;11.60;99.90;;;;;;5036441;28;20045;-80
2023/05/30 06:02:39;;;;;;;15.60;3.15;;;11.60;99.90;;;;;;5036642;28;20033;-80
2023/05/30 06:05:06;;;;;;;13.68;3.58;;;11.70;99.90;;;;;;5034977;28;20037;-80
2023/05/30 06:07:32;;;;;;;15.40;3.58;;;11.70;99.90;;;;;;5036892;28;20210;-80
2023/05/30 06:09:58;;;;;;;11.43;3.05;;;11.80;99.90;;;;;;5034413;28;20099;-81
2023/05/30 06:12:24;;;;;;;13.05;2.70;;;11.90;99.90;;;;;;5047425;28;20032;-82
2023/05/30 06:14:49;;;;;;;15.40;3.00;;;12.10;99.90;;;;;;5041649;28;20044;-81
2023/05/30 06:17:15;;;;;;;15.90;3.25;;;12.10;99.90;;;;;;5038402;28;20048;-81
2023/05/30 06:19:41;;;;;;;18.77;3.55;;;12.20;99.90;;;;;;5044720;28;20021;-80
2023/05/30 06:22:07;;;;;;;11.52;2.90;;;12.40;99.90;;;;;;5037603;28;20041;-80
2023/05/30 06:24:33;;;;;;;9.48;2.50;;;12.50;99.90;;;;;;5039909;28;20043;-81
2023/05/30 06:26:59;;;;;;;12.43;3.53;;;12.80;99.90;;;;;;5045765;28;20033;-80
2023/05/30 06:29:26;;;;;;;15.68;3.33;;;13.20;99.90;;;;;;5034610;28;20064;-82
2023/05/30 06:31:51;;;;;;;13.98;3.55;;;13.40;99.90;;;;;;5031483;28;20033;-80
2023/05/30 06:34:17;;;;;;;13.00;3.47;;;13.40;99.90;;;;;;5028143;28;20051;-80
2023/05/30 06:36:42;;;;;;;14.55;3.20;;;13.50;99.90;;;;;;5029130;28;20042;-81
2023/05/30 06:39:14;;;;;;;12.90;3.13;;;13.60;99.90;;;;;;5032607;28;20060;-81
2023/05/30 06:41:44;;;;;;;10.98;2.90;;;13.70;99.90;;;;;;5034915;28;20453;-81
2023/05/30 06:44:10;;;;;;;11.02;2.72;;;14.00;99.90;;;;;;5020463;28;20085;-81
2023/05/30 06:46:36;;;;;;;10.48;2.90;;;14.20;99.90;;;;;;5020935;28;20034;-80
2023/05/30 06:49:02;;;;;;;10.93;2.72;;;14.10;99.90;;;;;;5011275;28;20683;-80
2023/05/30 06:51:27;;;;;;;10.93;3.00;;;14.10;99.90;;;;;;5002434;28;20048;-81
2023/05/30 06:53:53;;;;;;;11.23;2.60;;;14.10;99.90;;;;;;5011073;28;20030;-81
2023/05/30 06:56:19;;;;;;;8.48;2.45;;;13.80;99.30;;;;;;5010659;28;20428;-80
2023/05/30 06:58:44;;;;;;;15.05;2.85;;;14.00;98.70;;;;;;5027232;28;20025;-81
2023/05/30 07:01:10;;;;;;;12.20;2.97;;;14.00;99.00;;;;;;5026139;28;20025;-80
2023/05/30 07:03:36;;;;;;;8.35;2.70;;;14.20;99.20;;;;;;5037843;28;20032;-81
2023/05/30 07:06:02;;;;;;;14.43;3.13;;;14.20;99.80;;;;;;5011559;28;20078;-82
2023/05/30 07:08:28;;;;;;;9.18;2.58;;;14.30;99.10;;;;;;5011431;28;20024;-81
2023/05/30 07:10:53;;;;;;;9.48;2.42;;;14.50;99.90;;;;;;5019555;28;20047;-81
2023/05/30 07:13:19;;;;;;;14.73;3.95;;;14.70;98.30;;;;;;5013067;28;20115;-80
2023/05/30 07:15:45;;;;;;;12.02;3.33;;;14.90;98.00;;;;;;5015875;28;20432;-81
2023/05/30 07:18:10;;;;;;;11.20;2.90;;;15.10;97.00;;;;;;5008791;28;20109;-81
2023/05/30 07:20:36;;;;;;;9.77;2.70;;;15.00;97.80;;;;;;5012627;28;20477;-81
2023/05/30 07:23:02;;;;;;;11.02;2.55;;;15.00;97.90;;;;;;5038516;28;20056;-80
2023/05/30 07:25:27;;;;;;;4.93;2.50;;;15.00;97.80;;;;;;5037684;28;20083;-81
2023/05/30 07:27:53;;;;;;;9.23;2.78;;;15.10;96.20;;;;;;5009696;28;20134;-81
2023/05/30 07:30:18;;;;;;;11.50;3.13;;;15.00;96.10;;;;;;5027259;28;20032;-81
2023/05/30 07:32:44;;;;;;;11.15;2.85;;;15.20;96.80;;;;;;5010390;28;20029;-81
2023/05/30 07:35:10;;;;;;;7.93;2.60;;;15.40;95.70;;;;;;5017715;28;20101;-82
2023/05/30 07:37:36;;;;;;;11.50;2.40;;;15.50;97.40;;;;;;5027106;28;20152;-80
2023/05/30 07:40:07;;;;;;;12.18;3.70;;;15.50;94.50;;;;;;5016926;28;20029;-82
2023/05/30 07:42:38;;;;;;;10.00;2.57;;;15.20;95.00;;;;;;5044920;28;20032;-82
2023/05/30 07:45:05;;;;;;;7.07;2.22;;;15.20;95.30;;;;;;5029706;28;20061;-82
2023/05/30 07:47:30;;;;;;;9.35;2.30;;;15.30;95.80;;;;;;5034185;28;20514;-82
2023/05/30 07:49:56;;;;;;;8.02;2.60;;;16.10;95.30;;;;;;5035928;28;20112;-82
2023/05/30 07:52:22;;;;;;;7.38;2.45;;;16.70;92.50;;;;;;5035966;28;20028;-82
2023/05/30 07:54:48;;;;;;;7.20;2.10;;;17.10;91.20;;;;;;5026430;28;20057;-82
2023/05/30 07:57:14;;;;;;;11.40;2.45;;;17.40;92.50;;;;;;5036348;28;20486;-82
2023/05/30 07:59:41;;;;;;;11.50;2.55;;;18.90;83.40;;;;;;5034063;28;20086;-81
2023/05/30 08:02:07;;;;;;;10.27;2.38;;;19.50;79.80;;;;;;5036002;28;20131;-82
2023/05/30 08:04:32;;;;;;;7.63;2.20;;;19.90;80.00;;;;;;5039742;28;20543;-82
2023/05/30 08:06:58;;;;;;;13.00;2.75;;;20.20;76.00;;;;;;5043654;28;20155;-82
2023/05/30 08:09:24;;;;;;;7.95;2.58;;;19.80;74.00;;;;;;5022615;28;20047;-81
2023/05/30 08:11:50;;;;;;;8.60;2.10;;;18.90;73.70;;;;;;5015167;28;20452;-82
2023/05/30 08:14:16;;;;;;;9.95;2.42;;;19.30;81.10;;;;;;5044997;28;20044;-82
2023/05/30 08:16:42;;;;;;;11.23;2.63;;;21.10;72.00;;;;;;5023032;28;20041;-81
2023/05/30 08:19:07;;;;;;;7.20;1.85;;;21.40;62.40;;;;;;5031620;28;20168;-82
2023/05/30 08:21:36;;;;;;;11.82;2.30;;;23.00;58.80;;;;;;5011747;28;20119;-82
2023/05/30 08:24:01;;;;;;;6.20;1.75;;;21.90;50.60;;;;;;5034730;28;20047;-83
2023/05/30 08:26:30;;;;;;;9.75;2.30;;;21.90;55.90;;;;;;5025555;28;20029;-83
2023/05/30 08:28:57;;;;;;;10.88;2.10;;;22.60;55.10;;;;;;5021062;28;20118;-83
2023/05/30 08:31:23;;;;;;;6.15;2.42;;;22.90;49.80;;;;;;5020936;28;20028;-83
2023/05/30 08:33:49;;;;;;;11.55;2.30;;;21.80;53.50;;;;;;5021012;28;20024;-83
2023/05/30 08:36:15;;;;;;;8.65;2.28;;;21.00;53.70;;;;;;5021296;28;20037;-84
2023/05/30 08:38:41;;;;;;;10.75;2.80;;;20.20;60.90;;;;;;5012177;28;20484;-83
2023/05/30 08:41:07;;;;;;;10.52;2.80;;;19.50;65.90;;;;;;5038254;28;20044;-82
2023/05/30 08:43:32;;;;;;;14.57;3.17;;;18.40;73.10;;;;;;5018618;28;20052;-83
2023/05/30 08:45:58;;;;;;;17.15;3.13;;;18.10;80.00;;;;;;5027896;28;20099;-83
2023/05/30 08:48:27;;;;;;;11.52;2.50;;;17.70;83.40;;;;;;5034211;28;20025;-82
2023/05/30 08:50:53;;;;;;;11.32;2.70;;;17.50;85.60;;;;;;5033655;28;20021;-83
2023/05/30 08:53:30;;;;;;;9.60;2.17;;;17.50;90.70;;;;;;5045187;28;20657;-83
2023/05/30 08:56:02;;;;;;;9.70;2.38;;;18.00;86.50;;;;;;5035867;28;20041;-83
2023/05/30 08:58:42;;;;;;;10.23;2.72;;;18.70;84.50;;;;;;5038693;28;20036;-82
2023/05/30 09:01:10;;;;;;;11.35;2.50;;;17.90;85.20;;;;;;5032414;28;20021;-82
2023/05/30 09:03:37;;;;;;;9.98;2.30;;;18.10;86.60;;;;;;5031135;28;20401;-82
2023/05/30 09:06:04;;;;;;;11.85;2.42;;;18.20;82.70;;;;;;5029238;28;20029;-82
2023/05/30 09:08:31;;;;;;;16.33;2.80;;;18.10;81.40;;;;;;5035217;28;20029;-82
2023/05/30 09:10:58;;;;;;;10.13;2.13;;;17.90;83.80;;;;;;5026636;28;20129;-82
2023/05/30 09:13:24;;;;;;;12.85;2.63;;;17.60;86.20;;;;;;5031726;28;20353;-82
2023/05/30 09:15:50;;;;;;;11.70;2.78;;;17.60;88.90;;;;;;5032843;28;20036;-82
2023/05/30 09:18:16;;;;;;;11.50;3.17;;;17.80;88.90;;;;;;5030084;28;20061;-82
2023/05/30 09:20:42;;;;;;;8.32;2.47;;;17.60;85.90;;;;;;5030033;28;20035;-82
2023/05/30 09:23:08;;;;;;;12.85;2.83;;;17.90;88.00;;;;;;5030915;28;20084;-82
2023/05/30 09:25:44;;;;;;;10.48;2.38;;;18.10;87.30;;;;;;5030258;28;20064;-82
2023/05/30 09:28:11;;;;;;;13.90;2.63;;;18.70;79.00;;;;;;5028438;28;20026;-82
2023/05/30 09:30:59;;;;;;;10.23;2.15;;;20.10;79.20;;;;;;5028119;28;20036;-82
2023/05/30 09:33:41;;;;;;;8.98;2.63;;;21.20;67.40;;;;;;5033806;28;20116;-83
2023/05/30 09:36:12;;;;;;;9.98;2.90;;;22.10;66.30;;;;;;5032918;28;20033;-83
2023/05/30 09:38:37;;;;;;;;;;;21.70;60.20;;;;;;5036325;28;22212;-83
2023/05/30 09:41:03;;;;;;;7.72;2.03;;;20.60;57.00;;;;;;5035572;28;19913;-83
2023/05/30 09:43:34;;;;;;;8.15;2.72;;;20.20;62.70;;;;;;5037324;28;20056;-83
2023/05/30 09:46:08;;;;;;;7.70;2.38;;;20.00;65.40;;;;;;5034453;28;20053;-83
2023/05/30 09:48:39;;;;;;;9.32;2.53;;;19.90;65.90;;;;;;5040767;28;20499;-82
2023/05/30 09:51:05;;;;;;;8.98;2.85;;;21.30;61.80;;;;;;5045991;28;20045;-83
2023/05/30 09:53:33;;;;;;;8.07;2.65;;;22.20;55.20;;;;;;5032081;28;20033;-82
2023/05/30 09:56:01;;;;;;;17.90;7.40;;;21.90;57.30;;;;;;5038224;28;20044;-84
2023/05/30 09:58:27;;;;;;;9.20;2.75;;;22.40;57.00;;;;;;5036449;28;20040;-82
2023/05/30 10:00:54;;;;;;;15.75;6.28;;;22.80;51.30;;;;;;5032034;28;20052;-83
2023/05/30 10:03:21;;;;;;;11.63;3.38;;;21.80;51.80;;;;;;5034054;28;20136;-85
2023/05/30 10:05:47;;;;;;;10.50;2.33;;;21.30;54.10;;;;;;5030717;28;20035;-81
2023/05/30 10:08:14;;;;;;;10.18;2.60;;;22.50;54.00;;;;;;5037040;28;20465;-83
2023/05/30 10:10:40;;;;;;;6.60;2.20;;;25.50;47.90;;;;;;5035128;28;20061;-82
2023/05/30 10:13:06;;;;;;;9.32;2.30;;;27.40;46.60;;;;;;5031636;28;20026;-81
2023/05/30 10:15:32;;;;;;;9.70;2.47;;;28.70;38.60;;;;;;5035585;28;20465;-82
2023/05/30 10:18:16;;;;;;;9.02;2.50;;;29.80;38.60;;;;;;5037315;28;20067;-82
2023/05/30 10:20:46;;;;;;;11.50;3.30;;;28.80;34.70;;;;;;5029635;28;20517;-83
2023/05/30 10:23:13;;;;;;;24.35;10.10;;;29.40;37.90;;;;;;5027798;28;20025;-82
2023/05/30 10:25:49;;;;;;;12.05;2.70;;;29.00;36.20;;;;;;5032286;28;20033;-83
2023/05/30 10:28:21;;;;;;;6.65;2.28;;;28.70;36.80;;;;;;5044437;28;20029;-83
2023/05/30 10:30:47;;;;;;;11.32;3.17;;;29.20;39.50;;;;;;5032752;28;20532;-82
2023/05/30 10:33:16;;;;;;;7.20;2.35;;;29.40;31.60;;;;;;5031389;28;20553;-82
2023/05/30 10:35:42;;;;;;;7.22;2.55;;;27.70;36.20;;;;;;5029632;28;20132;-82
2023/05/30 10:38:13;;;;;;;8.90;2.33;;;27.90;38.00;;;;;;5036462;28;20451;-82
2023/05/30 10:40:44;;;;;;;9.80;2.63;;;30.00;38.00;;;;;;5034678;28;20480;-82
2023/05/30 10:43:19;;;;;;;10.32;2.85;;;30.70;34.10;;;;;;5033391;28;20136;-82
2023/05/30 10:45:55;;;;;;;10.20;4.03;;;29.40;32.00;;;;;;5026603;28;20092;-82
2023/05/30 10:48:33;;;;;;;13.38;3.67;;;27.10;35.20;;;;;;5035937;28;20045;-82
2023/05/30 10:50:59;;;;;;;13.68;2.97;;;26.10;39.60;;;;;;5038155;28;20064;-82
2023/05/30 10:53:26;;;;;;;13.80;2.83;;;26.00;42.70;;;;;;5032057;28;20037;-82
2023/05/30 10:55:51;;;;;;;10.00;3.20;;;27.30;37.80;;;;;;5034305;28;20032;-82
2023/05/30 10:58:38;;;;;;;16.63;5.40;;;26.90;39.00;;;;;;5033635;28;20037;-81
2023/05/30 11:01:29;;;;;;;24.35;9.63;;;24.80;38.80;;;;;;5029393;28;20029;-81
2023/05/30 11:04:04;;;;;;;8.40;2.80;;;24.70;44.80;;;;;;5030269;28;20036;-81
2023/05/30 11:06:40;;;;;;;11.05;3.03;;;24.10;41.40;;;;;;5026907;28;20033;-82
2023/05/30 11:09:10;;;;;;;9.68;2.50;;;24.50;42.50;;;;;;5027357;28;20040;-82
2023/05/30 11:11:42;;;;;;;9.10;2.33;;;24.70;41.30;;;;;;4681419;28;10000349;-81
2023/05/30 11:14:10;;;;;;;7.53;2.20;;;24.90;40.00;;;;;;5032203;28;20038;-82
2023/05/30 11:16:56;;;;;;;9.35;2.85;;;25.70;40.40;;;;;;5041386;28;20034;-81
2023/05/30 11:19:33;;;;;;;14.90;4.22;;;27.00;41.30;;;;;;5024191;28;20084;-81
2023/05/30 11:21:59;;;;;;;29.17;13.75;;;25.00;38.50;;;;;;5030514;28;20053;-81
2023/05/30 11:24:26;;;;;;;8.35;2.35;;;23.90;46.90;;;;;;5028865;28;20033;-80
2023/05/30 11:26:55;;;;;;;8.85;3.50;;;23.60;45.90;;;;;;5014719;28;20044;-80
2023/05/30 11:29:32;;;;;;;11.13;3.78;;;24.60;46.60;;;;;;5023866;28;20033;-80
2023/05/30 11:32:00;;;;;;;11.27;2.53;;;24.00;42.00;;;;;;5010318;28;20029;-80
2023/05/30 11:34:26;;;;;;;12.05;3.75;;;23.50;46.20;;;;;;5022620;28;20088;-80
2023/05/30 11:36:52;;;;;;;10.18;2.35;;;22.20;46.60;;;;;;5018523;28;20067;-81
2023/05/30 11:39:22;;;;;;;12.13;2.65;;;21.70;50.40;;;;;;5023209;28;20025;-80
2023/05/30 11:41:48;;;;;;;11.90;3.50;;;21.50;56.00;;;;;;5004488;28;20614;-81
2023/05/30 11:44:14;;;;;;;8.57;2.30;;;21.50;51.80;;;;;;5008016;28;20116;-81
2023/05/30 11:46:41;;;;;;;10.07;2.92;;;22.00;50.90;;;;;;5005287;28;20037;-81
2023/05/30 11:49:07;;;;;;;7.72;2.00;;;22.00;54.60;;;;;;5019616;28;20504;-81
2023/05/30 11:51:33;;;;;;;5.68;2.00;;;22.30;69.40;;;;;;5006245;28;20107;-81
2023/05/30 11:53:59;;;;;;;10.00;2.00;;;22.00;60.00;;;;;;5020219;28;20060;-81
2023/05/30 11:56:29;;;;;;;8.25;1.90;;;22.00;61.90;;;;;;5022120;28;20068;-83
2023/05/30 11:58:56;;;;;;;8.07;1.92;;;21.90;55.00;;;;;;5023312;28;20033;-84
2023/05/30 12:01:27;;;;;;;9.75;2.13;;;21.50;58.30;;;;;;5020853;28;20049;-84
2023/05/30 12:03:56;;;;;;;9.90;2.10;;;21.20;59.70;;;;;;5017597;28;20102;-84
2023/05/30 12:06:22;;;;;;;7.90;2.25;;;20.80;57.10;;;;;;5016819;28;20048;-84
2023/05/30 12:08:48;;;;;;;5.20;1.77;;;21.20;58.60;;;;;;5021688;28;20033;-83
2023/05/30 12:11:14;;;;;;;8.70;1.80;;;21.60;64.30;;;;;;5026956;28;20060;-84
2023/05/30 12:13:41;;;;;;;10.18;2.20;;;21.70;57.00;;;;;;5036040;28;20090;-83
2023/05/30 12:16:08;;;;;;;8.55;2.05;;;21.20;63.20;;;;;;5020453;28;20037;-84
2023/05/30 12:18:35;;;;;;;11.27;2.10;;;21.00;67.20;;;;;;5029610;28;20056;-84
2023/05/30 12:21:01;;;;;;;8.77;2.35;;;21.10;66.00;;;;;;5028543;28;20029;-84
2023/05/30 12:23:27;;;;;;;11.10;2.03;;;21.00;59.00;;;;;;5026601;28;20493;-84
2023/05/30 12:25:54;;;;;;;8.32;2.00;;;21.20;63.70;;;;;;5027201;28;20704;-83
2023/05/30 12:28:21;;;;;;;11.90;2.45;;;21.20;61.70;;;;;;5026393;28;20029;-83
2023/05/30 12:30:50;;;;;;;9.93;2.40;;;21.20;61.10;;;;;;5027232;28;20508;-84
2023/05/30 12:33:17;;;;;;;12.50;2.95;;;21.70;65.00;;;;;;5016979;28;20029;-83
2023/05/30 12:35:44;;;;;;;12.35;3.13;;;21.20;63.40;;;;;;5030253;28;20405;-83
2023/05/30 12:38:12;;;;;;;10.57;2.33;;;20.50;61.40;;;;;;5016314;28;20052;-84
2023/05/30 12:40:56;;;;;;;8.82;2.13;;;20.60;73.70;;;;;;5033392;28;20113;-84
2023/05/30 12:43:27;;;;;;;13.10;2.40;;;20.90;75.00;;;;;;5027954;28;20144;-83
2023/05/30 12:45:57;;;;;;;6.47;2.50;;;21.40;65.20;;;;;;5028151;28;20040;-83